»·PEaware :: N13M KAVX-KSAN

N13M :: KAVX-KSAN

FLIGHT INFORMATION

Flight Status: Arrived
Operator: Privately registered:
United States
More flights under this callsign
Pilot: Zhuojun Y. (28503)
Aircraft: PIPER PA-31T-620 CHEYENNE 2
(PAY2)
More flights by this aircraft type
Origin: KAVX Catalina
United States
Destination: KSAN San Diego Intl-Lindbergh
United States
More flights between these airports :: More routes between these airports
Route: +SXC V208 LAX118R CARDI MZB320R MZB
File this flight plan on PilotEdge
Remarks: TEC route CSTP54
Altitude:
(Current/Filed)
9,000ft
Speed:
(Current/Filed)
200kts
Departed: 10-May-20 07:40 AM
Arrived: 10-May-20 08:25 AM
Distance/Time
Traveled:
74nm/0:45
Distance/Time
To Go:
Arrived

Flight Plot

Page will automatically refresh every two minutes.


Map Options




Map Legend


Flown Route
Filed Route
Departure Airport
Arrival Airport
Navaid (VOR, NDB)
Fix

Horizontal Profiles

Position Reports

Time Latitude Longitude Heading Altitude Ground
Speed
10-May-20 07:14 33.403881 -118.414879 254 1539ft 0kts
10-May-20 07:15 33.403881 -118.414879 254 1539ft 0kts
10-May-20 07:16 33.403881 -118.414879 254 1539ft 0kts
10-May-20 07:17 33.403881 -118.414879 254 1539ft 0kts
10-May-20 07:18 33.403881 -118.414879 254 1539ft 0kts
10-May-20 07:19 33.403881 -118.414879 254 1539ft 0kts
10-May-20 07:20 33.403881 -118.414879 254 1539ft 0kts
10-May-20 07:21 33.403881 -118.414879 254 1539ft 0kts
10-May-20 07:22 33.403881 -118.414879 254 1539ft 0kts
10-May-20 07:23 33.403881 -118.414879 254 1539ft 0kts
10-May-20 07:24 33.403881 -118.414879 254 1539ft 0kts
10-May-20 07:25 33.403881 -118.414879 254 1539ft 0kts
10-May-20 07:26 33.403881 -118.414879 254 1539ft 0kts
10-May-20 07:27 33.403881 -118.414879 254 1539ft 0kts
10-May-20 07:28 33.403881 -118.414879 254 1539ft 0kts
10-May-20 07:29 33.403881 -118.414879 254 1539ft 0kts
10-May-20 07:30 33.405197 -118.414701 52 1536ft 16kts
10-May-20 07:31 33.407139 -118.411458 52 1513ft 0kts
10-May-20 07:32 33.407139 -118.411458 52 1513ft 0kts
10-May-20 07:33 33.407139 -118.411458 52 1513ft 0kts
10-May-20 07:34 33.407139 -118.411458 52 1513ft 0kts
10-May-20 07:35 33.407139 -118.411458 52 1513ft 0kts
10-May-20 07:36 33.407139 -118.411458 52 1513ft 0kts
10-May-20 07:37 33.407350 -118.411592 269 1515ft 6kts
10-May-20 07:38 33.406967 -118.412440 233 1519ft 34kts
10-May-20 07:39 33.383734 -118.453567 228 3504ft 176kts
10-May-20 07:40 33.344467 -118.460867 131 4915ft 178kts
10-May-20 07:41 33.343966 -118.401254 102 5058ft 179kts
10-May-20 07:42 33.335322 -118.343520 120 5138ft 182kts
10-May-20 07:43 33.313620 -118.282331 105 7457ft 215kts
10-May-20 07:44 33.321295 -118.209216 77 9022ft 227kts
10-May-20 07:45 33.331805 -118.135989 89 10147ft 209kts
10-May-20 07:46 33.332824 -118.067226 102 9283ft 202kts
10-May-20 07:47 33.325555 -118.001799 102 8316ft 212kts
10-May-20 07:48 33.308112 -117.942311 108 8397ft 162kts
10-May-20 07:49 33.300556 -117.891817 102 8791ft 143kts
10-May-20 07:50 33.295399 -117.843998 101 8989ft 150kts
10-May-20 07:51 33.290308 -117.793180 101 9019ft 158kts
10-May-20 07:52 33.284550 -117.740370 102 9017ft 161kts
10-May-20 07:53 33.276592 -117.687007 102 9018ft 163kts
10-May-20 07:54 33.268589 -117.633527 102 9018ft 164kts
10-May-20 07:55 33.259032 -117.580411 124 9021ft 161kts
10-May-20 07:56 33.230137 -117.539958 133 9018ft 161kts
10-May-20 07:57 33.196547 -117.496837 133 9039ft 233kts
10-May-20 07:59 33.146571 -117.434608 133 9008ft 262kts
10-May-20 08:00 33.084066 -117.392770 155 8999ft 259kts
10-May-20 08:01 33.018592 -117.356419 155 8999ft 259kts
10-May-20 08:02 32.953059 -117.320062 155 8917ft 261kts
10-May-20 08:03 32.890484 -117.285342 156 7621ft 223kts
10-May-20 08:04 32.837346 -117.255931 156 6960ft 193kts
10-May-20 08:05 32.792727 -117.231289 155 6961ft 167kts
10-May-20 08:06 32.760200 -117.196133 109 6686ft 175kts
10-May-20 08:07 32.745897 -117.142500 108 6920ft 162kts
10-May-20 08:08 32.739002 -117.089015 99 7154ft 163kts
10-May-20 08:09 32.731330 -117.034182 106 6936ft 175kts
10-May-20 08:10 32.728465 -116.982092 73 6916ft 157kts
10-May-20 08:11 32.744632 -116.928636 71 5819ft 181kts
10-May-20 08:12 32.753804 -116.871881 82 5121ft 171kts
10-May-20 08:13 32.745839 -116.827065 162 4892ft 151kts
10-May-20 08:14 32.708904 -116.843372 216 4493ft 128kts
10-May-20 08:15 32.678038 -116.866239 235 5262ft 143kts
10-May-20 08:16 32.665651 -116.913518 281 5148ft 145kts
10-May-20 08:17 32.674540 -116.958735 289 4320ft 126kts
10-May-20 08:17 32.684962 -116.989605 294 3316ft 97kts
10-May-20 08:19 32.686585 -117.023178 304 2306ft 117kts
10-May-20 08:19 32.692403 -117.055469 336 1300ft 85kts
10-May-20 08:21 32.704774 -117.088044 269 872ft 115kts
10-May-20 08:21 32.700546 -117.116749 307 679ft 125kts
10-May-20 08:22 32.722683 -117.141123 283 866ft 108kts
10-May-20 08:23 32.729649 -117.173662 284 161ft 82kts
10-May-20 08:24 32.734001 -117.188109 23 21ft 0kts
10-May-20 08:25 32.734004 -117.188107 23 21ft 0kts
10-May-20 08:26 32.733450 -117.184519 106 21ft 11kts

Navigation Log

Ident Type
Flight plan parsing failed, navigation log unavailable